sensor_id;sensor_type;location;lat;lon;timestamp;temperature;humidity
23499;DHT22;11926;48.120;11.562;2023-04-15T00:01:16;7.20;95.30
23499;DHT22;11926;48.120;11.562;2023-04-15T00:04:04;7.10;95.20
23499;DHT22;11926;48.120;11.562;2023-04-15T00:06:51;7.10;95.20
23499;DHT22;11926;48.120;11.562;2023-04-15T00:09:40;7.10;95.20
23499;DHT22;11926;48.120;11.562;2023-04-15T00:12:27;7.10;95.20
23499;DHT22;11926;48.120;11.562;2023-04-15T00:15:15;7.10;95.20
23499;DHT22;11926;48.120;11.562;2023-04-15T00:18:03;7.10;95.30
23499;DHT22;11926;48.120;11.562;2023-04-15T00:20:50;7.10;95.30
23499;DHT22;11926;48.120;11.562;2023-04-15T00:23:38;7.10;95.30
23499;DHT22;11926;48.120;11.562;2023-04-15T00:26:25;7.10;95.30
23499;DHT22;11926;48.120;11.562;2023-04-15T00:29:14;7.10;95.30
23499;DHT22;11926;48.120;11.562;2023-04-15T00:32:01;7.10;95.50
23499;DHT22;11926;48.120;11.562;2023-04-15T00:34:50;7.10;95.40
23499;DHT22;11926;48.120;11.562;2023-04-15T00:37:37;7.10;95.40
23499;DHT22;11926;48.120;11.562;2023-04-15T00:40:24;7.10;95.40
23499;DHT22;11926;48.120;11.562;2023-04-15T00:43:12;7.20;95.50
23499;DHT22;11926;48.120;11.562;2023-04-15T00:46:04;7.10;95.50
23499;DHT22;11926;48.120;11.562;2023-04-15T00:48:53;7.10;95.50
23499;DHT22;11926;48.120;11.562;2023-04-15T00:51:42;7.10;95.50
23499;DHT22;11926;48.120;11.562;2023-04-15T00:54:29;7.10;95.50
23499;DHT22;11926;48.120;11.562;2023-04-15T00:57:16;7.10;95.50
23499;DHT22;11926;48.120;11.562;2023-04-15T01:00:05;7.10;95.50
23499;DHT22;11926;48.120;11.562;2023-04-15T01:02:54;7.10;95.50
23499;DHT22;11926;48.120;11.562;2023-04-15T01:05:42;7.00;95.50
23499;DHT22;11926;48.120;11.562;2023-04-15T01:08:31;7.00;95.50
23499;DHT22;11926;48.120;11.562;2023-04-15T01:11:18;7.00;95.50
23499;DHT22;11926;48.120;11.562;2023-04-15T01:14:06;7.00;95.50
23499;DHT22;11926;48.120;11.562;2023-04-15T01:16:54;7.00;95.50
23499;DHT22;11926;48.120;11.562;2023-04-15T01:19:42;7.00;95.60
23499;DHT22;11926;48.120;11.562;2023-04-15T01:22:28;7.00;95.60
23499;DHT22;11926;48.120;11.562;2023-04-15T01:25:27;7.00;95.60
23499;DHT22;11926;48.120;11.562;2023-04-15T01:28:16;7.00;95.50
23499;DHT22;11926;48.120;11.562;2023-04-15T01:31:06;7.00;95.50
23499;DHT22;11926;48.120;11.562;2023-04-15T01:33:55;7.00;95.60
23499;DHT22;11926;48.120;11.562;2023-04-15T01:36:42;7.00;95.60
23499;DHT22;11926;48.120;11.562;2023-04-15T01:39:29;7.00;95.60
23499;DHT22;11926;48.120;11.562;2023-04-15T01:42:18;7.00;95.70
23499;DHT22;11926;48.120;11.562;2023-04-15T01:45:08;7.00;95.70
23499;DHT22;11926;48.120;11.562;2023-04-15T01:47:56;6.90;95.60
23499;DHT22;11926;48.120;11.562;2023-04-15T01:50:43;6.90;95.70
23499;DHT22;11926;48.120;11.562;2023-04-15T01:53:32;7.00;95.70
23499;DHT22;11926;48.120;11.562;2023-04-15T01:56:20;7.00;95.70
23499;DHT22;11926;48.120;11.562;2023-04-15T01:59:09;7.00;95.60
23499;DHT22;11926;48.120;11.562;2023-04-15T02:01:57;7.00;95.60
23499;DHT22;11926;48.120;11.562;2023-04-15T02:04:45;7.00;95.70
23499;DHT22;11926;48.120;11.562;2023-04-15T02:07:34;7.00;95.60
23499;DHT22;11926;48.120;11.562;2023-04-15T02:10:22;7.00;95.60
23499;DHT22;11926;48.120;11.562;2023-04-15T02:13:08;7.00;95.60
23499;DHT22;11926;48.120;11.562;2023-04-15T02:15:57;7.00;95.60
23499;DHT22;11926;48.120;11.562;2023-04-15T02:18:45;7.00;95.50
23499;DHT22;11926;48.120;11.562;2023-04-15T02:21:33;7.00;95.60
23499;DHT22;11926;48.120;11.562;2023-04-15T02:24:20;6.90;95.60
23499;DHT22;11926;48.120;11.562;2023-04-15T02:27:08;6.90;95.60
23499;DHT22;11926;48.120;11.562;2023-04-15T02:29:55;6.90;95.60
23499;DHT22;11926;48.120;11.562;2023-04-15T02:32:43;6.90;95.60
23499;DHT22;11926;48.120;11.562;2023-04-15T02:35:31;7.00;95.60
23499;DHT22;11926;48.120;11.562;2023-04-15T02:38:19;6.90;95.50
23499;DHT22;11926;48.120;11.562;2023-04-15T02:41:06;6.90;95.50
23499;DHT22;11926;48.120;11.562;2023-04-15T02:43:53;6.90;95.50
23499;DHT22;11926;48.120;11.562;2023-04-15T02:46:40;6.90;95.60
23499;DHT22;11926;48.120;11.562;2023-04-15T02:49:29;6.90;95.50
23499;DHT22;11926;48.120;11.562;2023-04-15T02:52:16;6.90;95.50
23499;DHT22;11926;48.120;11.562;2023-04-15T02:55:03;6.90;95.50
23499;DHT22;11926;48.120;11.562;2023-04-15T02:57:51;6.90;95.50
23499;DHT22;11926;48.120;11.562;2023-04-15T03:00:38;6.90;95.60
23499;DHT22;11926;48.120;11.562;2023-04-15T03:03:25;6.90;95.50
23499;DHT22;11926;48.120;11.562;2023-04-15T03:06:15;6.90;95.50
23499;DHT22;11926;48.120;11.562;2023-04-15T03:09:02;6.90;95.50
23499;DHT22;11926;48.120;11.562;2023-04-15T03:11:52;6.90;95.50
23499;DHT22;11926;48.120;11.562;2023-04-15T03:14:40;6.90;95.40
23499;DHT22;11926;48.120;11.562;2023-04-15T03:17:27;6.90;95.50
23499;DHT22;11926;48.120;11.562;2023-04-15T03:20:14;6.90;95.40
23499;DHT22;11926;48.120;11.562;2023-04-15T03:23:03;6.90;95.40
23499;DHT22;11926;48.120;11.562;2023-04-15T03:25:50;6.90;95.40
23499;DHT22;11926;48.120;11.562;2023-04-15T03:28:41;6.90;95.30
23499;DHT22;11926;48.120;11.562;2023-04-15T03:31:31;6.90;95.30
23499;DHT22;11926;48.120;11.562;2023-04-15T03:34:18;6.90;95.40
23499;DHT22;11926;48.120;11.562;2023-04-15T03:37:05;6.90;95.40
23499;DHT22;11926;48.120;11.562;2023-04-15T03:39:54;6.90;95.30
23499;DHT22;11926;48.120;11.562;2023-04-15T03:42:41;6.90;95.30
23499;DHT22;11926;48.120;11.562;2023-04-15T03:45:29;6.90;95.30
23499;DHT22;11926;48.120;11.562;2023-04-15T03:48:16;6.90;95.20
23499;DHT22;11926;48.120;11.562;2023-04-15T03:51:03;6.90;95.20
23499;DHT22;11926;48.120;11.562;2023-04-15T03:53:51;6.90;95.10
23499;DHT22;11926;48.120;11.562;2023-04-15T03:56:40;6.90;95.20
23499;DHT22;11926;48.120;11.562;2023-04-15T03:59:27;6.90;95.10
23499;DHT22;11926;48.120;11.562;2023-04-15T04:02:14;6.90;95.10
23499;DHT22;11926;48.120;11.562;2023-04-15T04:05:01;6.90;95.10
23499;DHT22;11926;48.120;11.562;2023-04-15T04:07:48;6.90;95.10
23499;DHT22;11926;48.120;11.562;2023-04-15T04:10:35;6.90;95.00
23499;DHT22;11926;48.120;11.562;2023-04-15T04:13:24;6.90;95.00
23499;DHT22;11926;48.120;11.562;2023-04-15T04:16:11;6.90;94.90
23499;DHT22;11926;48.120;11.562;2023-04-15T04:18:58;6.90;94.90
23499;DHT22;11926;48.120;11.562;2023-04-15T04:21:46;6.90;95.00
23499;DHT22;11926;48.120;11.562;2023-04-15T04:24:33;6.90;95.00
23499;DHT22;11926;48.120;11.562;2023-04-15T04:27:20;6.90;94.90
23499;DHT22;11926;48.120;11.562;2023-04-15T04:30:09;6.90;94.80
23499;DHT22;11926;48.120;11.562;2023-04-15T04:32:56;6.90;95.00
23499;DHT22;11926;48.120;11.562;2023-04-15T04:35:43;6.80;94.90
23499;DHT22;11926;48.120;11.562;2023-04-15T04:38:30;6.80;94.80
23499;DHT22;11926;48.120;11.562;2023-04-15T04:41:17;6.80;94.90
23499;DHT22;11926;48.120;11.562;2023-04-15T04:44:04;6.80;94.80
23499;DHT22;11926;48.120;11.562;2023-04-15T04:46:52;6.90;94.80
23499;DHT22;11926;48.120;11.562;2023-04-15T04:49:39;6.80;94.70
23499;DHT22;11926;48.120;11.562;2023-04-15T04:52:27;6.80;94.70
23499;DHT22;11926;48.120;11.562;2023-04-15T04:55:14;6.80;94.60
23499;DHT22;11926;48.120;11.562;2023-04-15T04:58:01;6.90;94.70
23499;DHT22;11926;48.120;11.562;2023-04-15T05:00:48;6.80;94.60
23499;DHT22;11926;48.120;11.562;2023-04-15T05:03:36;6.80;94.60
23499;DHT22;11926;48.120;11.562;2023-04-15T05:06:23;6.90;94.60
23499;DHT22;11926;48.120;11.562;2023-04-15T05:09:10;6.80;94.50
23499;DHT22;11926;48.120;11.562;2023-04-15T05:11:58;6.90;94.50
23499;DHT22;11926;48.120;11.562;2023-04-15T05:14:46;6.90;94.50
23499;DHT22;11926;48.120;11.562;2023-04-15T05:17:33;6.90;94.50
23499;DHT22;11926;48.120;11.562;2023-04-15T05:20:22;6.90;94.40
23499;DHT22;11926;48.120;11.562;2023-04-15T05:23:09;7.00;94.30
23499;DHT22;11926;48.120;11.562;2023-04-15T05:25:56;6.90;94.20
23499;DHT22;11926;48.120;11.562;2023-04-15T05:28:43;7.00;94.30
23499;DHT22;11926;48.120;11.562;2023-04-15T05:31:30;7.00;94.10
23499;DHT22;11926;48.120;11.562;2023-04-15T05:34:18;7.00;94.00
23499;DHT22;11926;48.120;11.562;2023-04-15T05:37:06;7.00;94.00
23499;DHT22;11926;48.120;11.562;2023-04-15T05:39:54;7.00;93.90
23499;DHT22;11926;48.120;11.562;2023-04-15T05:42:43;7.00;93.80
23499;DHT22;11926;48.120;11.562;2023-04-15T05:45:31;7.00;93.70
23499;DHT22;11926;48.120;11.562;2023-04-15T05:48:18;7.00;93.60
23499;DHT22;11926;48.120;11.562;2023-04-15T05:51:06;7.10;93.50
23499;DHT22;11926;48.120;11.562;2023-04-15T05:53:55;7.10;93.50
23499;DHT22;11926;48.120;11.562;2023-04-15T05:56:43;7.10;93.40
23499;DHT22;11926;48.120;11.562;2023-04-15T05:59:30;7.10;93.20
23499;DHT22;11926;48.120;11.562;2023-04-15T06:02:18;7.10;93.10
23499;DHT22;11926;48.120;11.562;2023-04-15T06:05:06;7.20;93.00
23499;DHT22;11926;48.120;11.562;2023-04-15T06:07:56;7.20;92.90
23499;DHT22;11926;48.120;11.562;2023-04-15T06:10:45;7.20;92.70
23499;DHT22;11926;48.120;11.562;2023-04-15T06:13:33;7.20;92.70
23499;DHT22;11926;48.120;11.562;2023-04-15T06:16:21;7.20;92.50
23499;DHT22;11926;48.120;11.562;2023-04-15T06:19:09;7.20;92.40
23499;DHT22;11926;48.120;11.562;2023-04-15T06:21:57;7.30;92.50
23499;DHT22;11926;48.120;11.562;2023-04-15T06:24:45;7.30;92.30
23499;DHT22;11926;48.120;11.562;2023-04-15T06:27:37;7.30;92.20
23499;DHT22;11926;48.120;11.562;2023-04-15T06:30:27;7.40;92.10
23499;DHT22;11926;48.120;11.562;2023-04-15T06:33:15;7.40;91.90
23499;DHT22;11926;48.120;11.562;2023-04-15T06:36:05;7.40;92.00
23499;DHT22;11926;48.120;11.562;2023-04-15T06:38:52;7.50;91.90
23499;DHT22;11926;48.120;11.562;2023-04-15T06:41:41;7.50;91.80
23499;DHT22;11926;48.120;11.562;2023-04-15T06:44:31;7.60;91.80
23499;DHT22;11926;48.120;11.562;2023-04-15T06:47:19;7.70;91.60
23499;DHT22;11926;48.120;11.562;2023-04-15T06:50:09;7.80;91.80
23499;DHT22;11926;48.120;11.562;2023-04-15T06:52:57;7.80;91.20
23499;DHT22;11926;48.120;11.562;2023-04-15T06:55:45;7.90;91.20
23499;DHT22;11926;48.120;11.562;2023-04-15T06:58:33;8.00;91.20
23499;DHT22;11926;48.120;11.562;2023-04-15T07:01:22;8.00;90.90
23499;DHT22;11926;48.120;11.562;2023-04-15T07:04:11;8.10;90.80
23499;DHT22;11926;48.120;11.562;2023-04-15T07:06:59;8.20;90.90
23499;DHT22;11926;48.120;11.562;2023-04-15T07:09:47;8.30;90.80
23499;DHT22;11926;48.120;11.562;2023-04-15T07:12:36;8.40;90.70
23499;DHT22;11926;48.120;11.562;2023-04-15T07:15:24;8.60;90.40
23499;DHT22;11926;48.120;11.562;2023-04-15T07:18:13;8.70;90.30
23499;DHT22;11926;48.120;11.562;2023-04-15T07:21:00;8.90;90.10
23499;DHT22;11926;48.120;11.562;2023-04-15T07:23:48;9.10;90.00
23499;DHT22;11926;48.120;11.562;2023-04-15T07:26:36;9.30;89.20
23499;DHT22;11926;48.120;11.562;2023-04-15T07:29:23;9.50;88.50
23499;DHT22;11926;48.120;11.562;2023-04-15T07:32:11;9.70;87.50
23499;DHT22;11926;48.120;11.562;2023-04-15T07:35:00;9.90;86.90
23499;DHT22;11926;48.120;11.562;2023-04-15T07:37:48;10.10;86.50
23499;DHT22;11926;48.120;11.562;2023-04-15T07:40:37;10.30;85.70
23499;DHT22;11926;48.120;11.562;2023-04-15T07:43:25;10.40;84.70
23499;DHT22;11926;48.120;11.562;2023-04-15T07:46:13;10.50;84.40
23499;DHT22;11926;48.120;11.562;2023-04-15T07:49:00;10.70;83.60
23499;DHT22;11926;48.120;11.562;2023-04-15T07:51:50;10.80;83.80
23499;DHT22;11926;48.120;11.562;2023-04-15T07:54:37;10.90;82.80
23499;DHT22;11926;48.120;11.562;2023-04-15T07:57:47;11.00;81.80
23499;DHT22;11926;48.120;11.562;2023-04-15T08:00:34;11.20;81.50
23499;DHT22;11926;48.120;11.562;2023-04-15T08:03:23;11.50;81.20
23499;DHT22;11926;48.120;11.562;2023-04-15T08:06:17;11.80;80.40
23499;DHT22;11926;48.120;11.562;2023-04-15T08:09:06;12.10;79.00
23499;DHT22;11926;48.120;11.562;2023-04-15T08:11:57;12.40;77.50
23499;DHT22;11926;48.120;11.562;2023-04-15T08:14:46;12.60;76.50
23499;DHT22;11926;48.120;11.562;2023-04-15T08:17:34;12.80;76.00
23499;DHT22;11926;48.120;11.562;2023-04-15T08:20:21;13.20;75.10
23499;DHT22;11926;48.120;11.562;2023-04-15T08:23:10;13.50;73.80
23499;DHT22;11926;48.120;11.562;2023-04-15T08:26:00;13.70;72.30
23499;DHT22;11926;48.120;11.562;2023-04-15T08:28:50;13.80;71.50
23499;DHT22;11926;48.120;11.562;2023-04-15T08:31:37;13.90;71.00
23499;DHT22;11926;48.120;11.562;2023-04-15T08:34:25;14.10;70.50
23499;DHT22;11926;48.120;11.562;2023-04-15T08:37:13;14.30;69.50
23499;DHT22;11926;48.120;11.562;2023-04-15T08:40:04;14.30;69.00
23499;DHT22;11926;48.120;11.562;2023-04-15T08:42:56;14.10;68.70
23499;DHT22;11926;48.120;11.562;2023-04-15T08:45:46;13.90;67.90
23499;DHT22;11926;48.120;11.562;2023-04-15T08:48:36;13.70;68.30
23499;DHT22;11926;48.120;11.562;2023-04-15T08:51:26;13.60;68.80
23499;DHT22;11926;48.120;11.562;2023-04-15T08:54:13;13.30;68.50
23499;DHT22;11926;48.120;11.562;2023-04-15T08:57:01;13.10;69.20
23499;DHT22;11926;48.120;11.562;2023-04-15T08:59:52;12.80;69.20
23499;DHT22;11926;48.120;11.562;2023-04-15T09:02:42;12.70;69.70
23499;DHT22;11926;48.120;11.562;2023-04-15T09:05:31;12.50;69.70
23499;DHT22;11926;48.120;11.562;2023-04-15T09:08:20;12.40;69.90
23499;DHT22;11926;48.120;11.562;2023-04-15T09:11:10;12.40;69.90
23499;DHT22;11926;48.120;11.562;2023-04-15T09:13:58;12.30;70.30
23499;DHT22;11926;48.120;11.562;2023-04-15T09:17:02;12.30;70.70
23499;DHT22;11926;48.120;11.562;2023-04-15T09:20:07;12.40;71.10
23499;DHT22;11926;48.120;11.562;2023-04-15T09:22:59;12.50;70.60
23499;DHT22;11926;48.120;11.562;2023-04-15T09:26:00;12.60;70.50
23499;DHT22;11926;48.120;11.562;2023-04-15T09:28:50;12.70;70.10
23499;DHT22;11926;48.120;11.562;2023-04-15T09:31:37;12.90;69.90
23499;DHT22;11926;48.120;11.562;2023-04-15T09:34:36;13.00;69.20
23499;DHT22;11926;48.120;11.562;2023-04-15T09:37:34;13.00;69.00
23499;DHT22;11926;48.120;11.562;2023-04-15T09:40:32;13.10;69.40
23499;DHT22;11926;48.120;11.562;2023-04-15T09:43:20;13.20;68.80
23499;DHT22;11926;48.120;11.562;2023-04-15T09:46:11;13.20;69.20
23499;DHT22;11926;48.120;11.562;2023-04-15T09:49:06;13.50;68.90
23499;DHT22;11926;48.120;11.562;2023-04-15T09:51:59;13.70;69.00
23499;DHT22;11926;48.120;11.562;2023-04-15T09:54:53;13.90;68.20
23499;DHT22;11926;48.120;11.562;2023-04-15T09:57:41;14.00;67.60
23499;DHT22;11926;48.120;11.562;2023-04-15T10:00:30;14.00;67.20
23499;DHT22;11926;48.120;11.562;2023-04-15T10:03:20;13.90;66.70
23499;DHT22;11926;48.120;11.562;2023-04-15T10:06:10;13.70;66.60
23499;DHT22;11926;48.120;11.562;2023-04-15T10:09:00;13.50;66.60
23499;DHT22;11926;48.120;11.562;2023-04-15T10:11:49;13.30;66.90
23499;DHT22;11926;48.120;11.562;2023-04-15T10:14:37;13.20;67.50
23499;DHT22;11926;48.120;11.562;2023-04-15T10:17:27;13.10;67.50
23499;DHT22;11926;48.120;11.562;2023-04-15T10:20:20;13.10;67.40
23499;DHT22;11926;48.120;11.562;2023-04-15T10:23:09;13.00;67.70
23499;DHT22;11926;48.120;11.562;2023-04-15T10:26:03;13.00;67.50
23499;DHT22;11926;48.120;11.562;2023-04-15T10:28:52;13.00;67.70
23499;DHT22;11926;48.120;11.562;2023-04-15T10:31:40;13.00;67.40
23499;DHT22;11926;48.120;11.562;2023-04-15T10:34:29;13.10;67.50
23499;DHT22;11926;48.120;11.562;2023-04-15T10:37:20;13.10;67.30
23499;DHT22;11926;48.120;11.562;2023-04-15T10:40:25;13.20;67.00
23499;DHT22;11926;48.120;11.562;2023-04-15T10:43:24;13.10;66.90
23499;DHT22;11926;48.120;11.562;2023-04-15T10:46:12;13.00;66.90
23499;DHT22;11926;48.120;11.562;2023-04-15T10:49:07;12.90;67.90
23499;DHT22;11926;48.120;11.562;2023-04-15T10:51:57;13.00;67.70
23499;DHT22;11926;48.120;11.562;2023-04-15T10:54:48;13.10;67.70
23499;DHT22;11926;48.120;11.562;2023-04-15T10:57:38;13.10;67.60
23499;DHT22;11926;48.120;11.562;2023-04-15T11:00:30;13.20;67.40
23499;DHT22;11926;48.120;11.562;2023-04-15T11:03:36;13.20;67.10
23499;DHT22;11926;48.120;11.562;2023-04-15T11:06:43;13.20;67.90
23499;DHT22;11926;48.120;11.562;2023-04-15T11:09:32;13.30;67.30
23499;DHT22;11926;48.120;11.562;2023-04-15T11:12:20;13.40;67.60
23499;DHT22;11926;48.120;11.562;2023-04-15T11:15:31;13.40;67.10
23499;DHT22;11926;48.120;11.562;2023-04-15T11:18:20;13.40;66.60
23499;DHT22;11926;48.120;11.562;2023-04-15T11:21:07;13.30;67.20
23499;DHT22;11926;48.120;11.562;2023-04-15T11:23:55;13.30;66.70
23499;DHT22;11926;48.120;11.562;2023-04-15T11:26:42;13.20;66.50
23499;DHT22;11926;48.120;11.562;2023-04-15T11:29:29;13.20;66.50
23499;DHT22;11926;48.120;11.562;2023-04-15T11:32:18;13.00;66.60
23499;DHT22;11926;48.120;11.562;2023-04-15T11:35:07;12.90;67.40
23499;DHT22;11926;48.120;11.562;2023-04-15T11:37:54;12.70;68.60
23499;DHT22;11926;48.120;11.562;2023-04-15T11:40:42;12.60;69.20
23499;DHT22;11926;48.120;11.562;2023-04-15T11:43:32;12.60;70.00
23499;DHT22;11926;48.120;11.562;2023-04-15T11:46:20;12.50;70.30
23499;DHT22;11926;48.120;11.562;2023-04-15T11:49:28;12.50;70.90
23499;DHT22;11926;48.120;11.562;2023-04-15T11:52:16;12.50;71.60
23499;DHT22;11926;48.120;11.562;2023-04-15T11:55:07;12.40;71.20
23499;DHT22;11926;48.120;11.562;2023-04-15T11:58:11;12.40;71.10
23499;DHT22;11926;48.120;11.562;2023-04-15T12:01:02;12.30;71.40
23499;DHT22;11926;48.120;11.562;2023-04-15T12:03:52;12.20;71.10
23499;DHT22;11926;48.120;11.562;2023-04-15T12:06:44;12.10;71.30
23499;DHT22;11926;48.120;11.562;2023-04-15T12:09:37;12.00;71.60
23499;DHT22;11926;48.120;11.562;2023-04-15T12:12:26;12.00;71.70
23499;DHT22;11926;48.120;11.562;2023-04-15T12:15:16;11.90;71.60
23499;DHT22;11926;48.120;11.562;2023-04-15T12:18:04;12.00;71.80
23499;DHT22;11926;48.120;11.562;2023-04-15T12:20:53;11.90;71.50
23499;DHT22;11926;48.120;11.562;2023-04-15T12:23:51;11.90;71.30
23499;DHT22;11926;48.120;11.562;2023-04-15T12:26:47;11.90;71.70
23499;DHT22;11926;48.120;11.562;2023-04-15T12:29:42;11.90;71.50
23499;DHT22;11926;48.120;11.562;2023-04-15T12:32:29;12.00;71.40
23499;DHT22;11926;48.120;11.562;2023-04-15T12:35:21;12.00;71.40
23499;DHT22;11926;48.120;11.562;2023-04-15T12:38:11;12.10;71.60
23499;DHT22;11926;48.120;11.562;2023-04-15T12:41:00;12.20;71.60
23499;DHT22;11926;48.120;11.562;2023-04-15T12:43:47;12.30;72.00
23499;DHT22;11926;48.120;11.562;2023-04-15T12:46:34;12.30;70.80
23499;DHT22;11926;48.120;11.562;2023-04-15T12:49:21;12.40;70.90
23499;DHT22;11926;48.120;11.562;2023-04-15T12:52:09;12.50;70.40
23499;DHT22;11926;48.120;11.562;2023-04-15T12:54:56;12.50;70.00
23499;DHT22;11926;48.120;11.562;2023-04-15T12:57:44;12.40;68.80
23499;DHT22;11926;48.120;11.562;2023-04-15T13:00:33;12.30;68.20
23499;DHT22;11926;48.120;11.562;2023-04-15T13:03:21;12.30;67.70
23499;DHT22;11926;48.120;11.562;2023-04-15T13:06:08;12.30;67.80
23499;DHT22;11926;48.120;11.562;2023-04-15T13:08:56;12.20;67.20
23499;DHT22;11926;48.120;11.562;2023-04-15T13:11:44;12.20;67.20
23499;DHT22;11926;48.120;11.562;2023-04-15T13:14:33;12.10;66.90
23499;DHT22;11926;48.120;11.562;2023-04-15T13:17:20;12.00;66.50
23499;DHT22;11926;48.120;11.562;2023-04-15T13:20:08;12.00;66.10
23499;DHT22;11926;48.120;11.562;2023-04-15T13:22:55;11.90;66.10
23499;DHT22;11926;48.120;11.562;2023-04-15T13:25:42;11.80;65.70
23499;DHT22;11926;48.120;11.562;2023-04-15T13:28:29;11.80;65.80
23499;DHT22;11926;48.120;11.562;2023-04-15T13:31:18;11.80;65.80
23499;DHT22;11926;48.120;11.562;2023-04-15T13:34:05;11.80;66.10
23499;DHT22;11926;48.120;11.562;2023-04-15T13:36:53;11.80;66.30
23499;DHT22;11926;48.120;11.562;2023-04-15T13:39:40;11.80;66.60
23499;DHT22;11926;48.120;11.562;2023-04-15T13:42:27;11.80;66.70
23499;DHT22;11926;48.120;11.562;2023-04-15T13:45:14;11.80;66.70
23499;DHT22;11926;48.120;11.562;2023-04-15T13:48:03;11.80;67.50
23499;DHT22;11926;48.120;11.562;2023-04-15T13:50:53;11.70;67.80
23499;DHT22;11926;48.120;11.562;2023-04-15T13:53:43;11.60;68.60
23499;DHT22;11926;48.120;11.562;2023-04-15T13:56:31;11.50;69.90
23499;DHT22;11926;48.120;11.562;2023-04-15T13:59:19;11.50;70.70
23499;DHT22;11926;48.120;11.562;2023-04-15T14:02:07;11.40;71.10
23499;DHT22;11926;48.120;11.562;2023-04-15T14:04:56;11.40;71.50
23499;DHT22;11926;48.120;11.562;2023-04-15T14:07:44;11.30;71.80
23499;DHT22;11926;48.120;11.562;2023-04-15T14:10:31;11.30;72.00
23499;DHT22;11926;48.120;11.562;2023-04-15T14:13:19;11.30;72.20
23499;DHT22;11926;48.120;11.562;2023-04-15T14:16:07;11.30;72.40
23499;DHT22;11926;48.120;11.562;2023-04-15T14:18:55;11.30;72.60
23499;DHT22;11926;48.120;11.562;2023-04-15T14:21:47;11.40;72.60
23499;DHT22;11926;48.120;11.562;2023-04-15T14:24:35;11.40;72.00
23499;DHT22;11926;48.120;11.562;2023-04-15T14:27:25;11.50;71.70
23499;DHT22;11926;48.120;11.562;2023-04-15T14:30:13;11.50;71.50
23499;DHT22;11926;48.120;11.562;2023-04-15T14:33:01;11.50;70.90
23499;DHT22;11926;48.120;11.562;2023-04-15T14:35:50;11.50;71.30
23499;DHT22;11926;48.120;11.562;2023-04-15T14:38:39;11.50;71.30
23499;DHT22;11926;48.120;11.562;2023-04-15T14:41:27;11.50;70.70
23499;DHT22;11926;48.120;11.562;2023-04-15T14:44:14;11.50;70.10
23499;DHT22;11926;48.120;11.562;2023-04-15T14:47:02;11.50;70.10
23499;DHT22;11926;48.120;11.562;2023-04-15T14:49:50;11.50;70.20
23499;DHT22;11926;48.120;11.562;2023-04-15T14:52:37;11.40;69.80
23499;DHT22;11926;48.120;11.562;2023-04-15T14:55:26;11.40;70.30
23499;DHT22;11926;48.120;11.562;2023-04-15T14:58:14;11.40;70.20
23499;DHT22;11926;48.120;11.562;2023-04-15T15:01:01;11.40;70.60
23499;DHT22;11926;48.120;11.562;2023-04-15T15:03:49;11.40;70.40
23499;DHT22;11926;48.120;11.562;2023-04-15T15:06:36;11.40;70.80
23499;DHT22;11926;48.120;11.562;2023-04-15T15:09:23;11.40;71.10
23499;DHT22;11926;48.120;11.562;2023-04-15T15:12:12;11.40;71.20
23499;DHT22;11926;48.120;11.562;2023-04-15T15:14:59;11.30;72.10
23499;DHT22;11926;48.120;11.562;2023-04-15T15:17:49;11.30;72.60
23499;DHT22;11926;48.120;11.562;2023-04-15T15:20:36;11.30;73.30
23499;DHT22;11926;48.120;11.562;2023-04-15T15:23:24;11.20;74.70
23499;DHT22;11926;48.120;11.562;2023-04-15T15:26:11;11.10;74.50
23499;DHT22;11926;48.120;11.562;2023-04-15T15:29:00;11.10;75.10
23499;DHT22;11926;48.120;11.562;2023-04-15T15:31:47;10.90;75.40
23499;DHT22;11926;48.120;11.562;2023-04-15T15:34:35;10.80;76.30
23499;DHT22;11926;48.120;11.562;2023-04-15T15:37:22;10.60;76.80
23499;DHT22;11926;48.120;11.562;2023-04-15T15:40:10;10.50;77.30
23499;DHT22;11926;48.120;11.562;2023-04-15T15:42:58;10.40;78.40
23499;DHT22;11926;48.120;11.562;2023-04-15T15:45:47;10.40;78.80
23499;DHT22;11926;48.120;11.562;2023-04-15T15:48:39;10.20;79.70
23499;DHT22;11926;48.120;11.562;2023-04-15T15:51:27;10.20;79.80
23499;DHT22;11926;48.120;11.562;2023-04-15T15:54:15;10.00;80.40
23499;DHT22;11926;48.120;11.562;2023-04-15T15:57:03;10.00;81.40
23499;DHT22;11926;48.120;11.562;2023-04-15T15:59:53;9.90;82.00
23499;DHT22;11926;48.120;11.562;2023-04-15T16:02:59;9.90;82.30
23499;DHT22;11926;48.120;11.562;2023-04-15T16:05:52;9.80;82.50
23499;DHT22;11926;48.120;11.562;2023-04-15T16:08:43;9.80;82.90
23499;DHT22;11926;48.120;11.562;2023-04-15T16:11:33;9.70;83.10
23499;DHT22;11926;48.120;11.562;2023-04-15T16:14:21;9.70;83.30
23499;DHT22;11926;48.120;11.562;2023-04-15T16:17:09;9.60;83.40
23499;DHT22;11926;48.120;11.562;2023-04-15T16:20:01;9.60;83.70
23499;DHT22;11926;48.120;11.562;2023-04-15T16:22:51;9.60;84.00
23499;DHT22;11926;48.120;11.562;2023-04-15T16:25:40;9.50;84.00
23499;DHT22;11926;48.120;11.562;2023-04-15T16:28:28;9.50;84.00
23499;DHT22;11926;48.120;11.562;2023-04-15T16:31:16;9.50;84.00
23499;DHT22;11926;48.120;11.562;2023-04-15T16:34:07;9.50;85.20
23499;DHT22;11926;48.120;11.562;2023-04-15T16:36:56;9.50;84.60
23499;DHT22;11926;48.120;11.562;2023-04-15T16:39:44;9.50;84.50
23499;DHT22;11926;48.120;11.562;2023-04-15T16:42:31;9.40;84.40
23499;DHT22;11926;48.120;11.562;2023-04-15T16:45:18;9.40;84.50
23499;DHT22;11926;48.120;11.562;2023-04-15T16:48:05;9.30;84.60
23499;DHT22;11926;48.120;11.562;2023-04-15T16:50:53;9.30;84.50
23499;DHT22;11926;48.120;11.562;2023-04-15T16:53:41;9.30;84.80
23499;DHT22;11926;48.120;11.562;2023-04-15T16:56:28;9.20;84.80
23499;DHT22;11926;48.120;11.562;2023-04-15T16:59:16;9.20;84.90
23499;DHT22;11926;48.120;11.562;2023-04-15T17:02:04;9.10;84.90
23499;DHT22;11926;48.120;11.562;2023-04-15T17:04:51;9.00;84.90
23499;DHT22;11926;48.120;11.562;2023-04-15T17:07:38;9.00;85.30
23499;DHT22;11926;48.120;11.562;2023-04-15T17:10:26;9.00;85.60
23499;DHT22;11926;48.120;11.562;2023-04-15T17:13:13;9.00;85.90
23499;DHT22;11926;48.120;11.562;2023-04-15T17:16:00;8.90;86.10
23499;DHT22;11926;48.120;11.562;2023-04-15T17:18:48;8.90;86.40
23499;DHT22;11926;48.120;11.562;2023-04-15T17:21:36;8.80;86.40
23499;DHT22;11926;48.120;11.562;2023-04-15T17:24:23;8.70;86.60
23499;DHT22;11926;48.120;11.562;2023-04-15T17:27:12;8.60;86.90
23499;DHT22;11926;48.120;11.562;2023-04-15T17:29:59;8.60;87.30
23499;DHT22;11926;48.120;11.562;2023-04-15T17:32:46;8.50;87.60
23499;DHT22;11926;48.120;11.562;2023-04-15T17:35:33;8.50;88.10
23499;DHT22;11926;48.120;11.562;2023-04-15T17:38:19;8.40;88.50
23499;DHT22;11926;48.120;11.562;2023-04-15T17:41:07;8.40;89.00